Etusivu
METAR-TAF:

METAR-TAF

Lentoasemat :

Comiso, Italia

Leveyspiiri: 36-59-30N, Pituuspiiri: 14-36-25E, korkeus merenpinnasta: 190 m

Tämänhetkinen sää

Tämä raportti tehtiin 23 minuuttia sitten, kello 23.50 UTC
Tuuli 4 kn idästä/koillisesta
Lämpötila 21°C
Kosteus 64%
Ilmanpaine 1019 hPa
Näkyvyys 10 km tai enemmän

METAR: LICB 182350Z AUTO 06004KT 9999 NCD 21/14 Q1019

Aika: 02:13 (00:13 UTC)

Sääennuste

Tämä raportti tehtiin 1 tunti ja 13 minuuttia sitten, kello 23.00 UTC
Ennuste voimassa 19. päivästä klo 00 UTC - 19. päivään klo 24 UTC
Tuuli 5 kn eri suunnista
Näkyvyys 10 km tai enemmän
ei pilviä alle 1500 m:ssä eikä cumulonimbus-pilviä
Tulossa
19. päivästä klo 08 UTC - 19. päivään klo 10 UTC
Tuuli 12 kn lännestä/lounaasta
Tulossa
19. päivästä klo 18 UTC - 19. päivään klo 20 UTC
Tuuli 5 kn eri suunnista

TAF: LICB 182300Z 1900/1924 VRB05KT CAVOK BECMG 1908/1910 25012KT BECMG 1918/1920 VRB05KT

Säähavainnot ja -ennusteet yli 4000 lentoasemalta (METAR- ja TAF-raportit).

Käytössä olevat sääasemat on merkitty karttaan keltaisilla ja punaisilla pisteillä.

Aseta hiiri pisteen päälle nähdäksesi sääaseman nimen.

Klikkaa sitten nähdäksesi säähavainnot ja -ennusteet.

Kartan vaihtaminen: klikkaa mustalla rastilla varustettuja vihreitä pisteitä, niin voit zoomata sisään; viivalla varustettua vihreää pistettä, niin voit zoomata ulos tai vihreitä nuolia, niin pääset viereisille kartoille.


METAR-TAF: